Time;durP1;ratioP1;P1;durP2;ratioP2;P2;SDS_P1;SDS_P2;PMS_P1;PMS_P2;Temp;Humidity;BMP_temperature;BMP_pressure;BME280_temperature;BME280_humidity;BME280_pressure;Samples;Min_cycle;Max_cycle;Signal;HPM_P1;HPM_P2
2020/12/08 00:01:25;;;;;;;16.23;14.77;;;3.80;99.90;;;;;;5098813;28;20686;-88
2020/12/08 00:03:52;;;;;;;15.40;14.00;;;3.70;99.90;;;;;;5099018;28;20649;-88
2020/12/08 00:06:19;;;;;;;16.17;14.67;;;3.70;99.90;;;;;;5088957;28;20625;-86
2020/12/08 00:08:45;;;;;;;16.43;14.87;;;3.70;99.90;;;;;;5090965;28;20635;-87
2020/12/08 00:11:16;;;;;;;17.50;15.73;;;3.70;99.90;;;;;;5088319;28;20671;-87
2020/12/08 00:13:42;;;;;;;16.43;14.93;;;3.70;99.90;;;;;;5088887;28;20688;-87
2020/12/08 00:16:08;;;;;;;16.13;14.63;;;3.70;99.90;;;;;;5094216;28;20633;-88
2020/12/08 00:18:35;;;;;;;16.20;14.70;;;3.70;99.90;;;;;;5094098;28;20957;-88
2020/12/08 00:21:01;;;;;;;17.20;15.43;;;3.80;99.90;;;;;;5090142;28;20695;-88
2020/12/08 00:23:28;;;;;;;18.10;16.40;;;3.80;99.90;;;;;;5089777;28;20632;-88
2020/12/08 00:25:54;;;;;;;16.83;15.20;;;3.80;99.90;;;;;;5085793;28;20625;-88
2020/12/08 00:28:21;;;;;;;15.60;14.20;;;3.80;99.90;;;;;;5081384;28;20620;-88
2020/12/08 00:30:47;;;;;;;15.63;14.13;;;3.90;99.90;;;;;;5084877;28;20755;-88
2020/12/08 00:33:13;;;;;;;17.07;15.43;;;3.80;99.90;;;;;;5097611;28;20637;-87
2020/12/08 00:35:39;;;;;;;17.27;15.67;;;3.80;99.90;;;;;;5087414;28;20620;-86
2020/12/08 00:38:06;;;;;;;17.93;16.13;;;3.80;99.90;;;;;;5082625;28;20632;-87
2020/12/08 00:40:33;;;;;;;17.37;15.67;;;3.80;99.90;;;;;;5083540;28;21004;-88
2020/12/08 00:42:59;;;;;;;17.53;16.03;;;3.80;99.90;;;;;;5087474;28;21171;-87
2020/12/08 00:45:26;;;;;;;17.63;15.93;;;3.80;99.90;;;;;;5080734;28;21018;-86
2020/12/08 00:47:53;;;;;;;18.03;16.33;;;3.70;99.90;;;;;;5092032;28;20650;-87
2020/12/08 00:50:19;;;;;;;18.53;16.63;;;3.70;99.90;;;;;;5100260;28;20656;-86
2020/12/08 00:52:45;;;;;;;20.73;18.73;;;3.80;99.90;;;;;;5083513;28;21199;-87
2020/12/08 00:55:12;;;;;;;19.43;17.57;;;3.80;99.90;;;;;;5083013;28;21500;-88
2020/12/08 00:57:39;;;;;;;19.13;17.40;;;3.90;99.90;;;;;;5081587;28;20625;-88
2020/12/08 01:00:06;;;;;;;18.97;16.97;;;4.00;99.90;;;;;;5086687;28;20840;-88
2020/12/08 01:02:33;;;;;;;19.93;17.93;;;4.00;99.90;;;;;;5084490;28;21269;-87
2020/12/08 01:04:59;;;;;;;20.10;18.20;;;4.00;99.90;;;;;;5075044;28;20625;-88
2020/12/08 01:07:25;;;;;;;21.17;19.20;;;3.90;99.90;;;;;;5087999;28;20623;-87
2020/12/08 01:09:52;;;;;;;20.60;18.67;;;3.80;99.90;;;;;;5084155;28;20637;-87
2020/12/08 01:12:18;;;;;;;20.03;18.03;;;3.80;99.90;;;;;;5090232;28;21004;-87
2020/12/08 01:14:45;;;;;;;22.77;20.37;;;3.90;99.90;;;;;;5087020;28;20620;-87
2020/12/08 01:17:12;;;;;;;22.10;19.90;;;3.80;99.90;;;;;;5083366;28;20620;-87
2020/12/08 01:19:39;;;;;;;21.63;19.57;;;3.80;99.90;;;;;;5083331;28;20669;-85
2020/12/08 01:22:05;;;;;;;22.17;20.03;;;3.80;99.90;;;;;;5080202;28;20628;-86
2020/12/08 01:24:32;;;;;;;21.50;19.60;;;3.80;99.90;;;;;;5083957;28;20621;-86
2020/12/08 01:26:58;;;;;;;23.53;21.33;;;3.90;99.90;;;;;;5083340;28;20621;-86
2020/12/08 01:29:24;;;;;;;22.87;20.70;;;3.90;99.90;;;;;;5078549;28;20722;-87
2020/12/08 01:31:52;;;;;;;21.93;19.73;;;3.80;99.90;;;;;;5088479;28;20617;-87
2020/12/08 01:34:18;;;;;;;21.80;19.70;;;3.80;99.90;;;;;;5088674;28;20646;-86
2020/12/08 01:36:44;;;;;;;24.07;21.73;;;3.80;99.90;;;;;;5088344;28;20618;-86
2020/12/08 01:39:10;;;;;;;23.23;21.00;;;3.80;99.90;;;;;;5081376;28;20656;-86
2020/12/08 01:41:39;;;;;;;23.73;21.40;;;3.80;99.90;;;;;;5088482;28;20664;-87
2020/12/08 01:44:05;;;;;;;23.13;20.83;;;3.90;99.90;;;;;;5090012;28;20628;-86
2020/12/08 01:46:33;;;;;;;23.10;20.80;;;3.70;99.90;;;;;;5082797;28;20645;-86
2020/12/08 01:49:00;;;;;;;22.97;20.73;;;3.70;99.90;;;;;;5091163;28;20625;-85
2020/12/08 01:51:27;;;;;;;23.03;20.77;;;3.60;99.90;;;;;;5079959;28;20645;-85
2020/12/08 01:53:54;;;;;;;22.17;20.07;;;3.60;99.90;;;;;;5078519;28;20624;-85
2020/12/08 01:56:20;;;;;;;22.43;20.37;;;3.70;99.90;;;;;;5086935;28;20628;-85
2020/12/08 01:58:47;;;;;;;23.00;20.80;;;3.60;99.90;;;;;;5082529;28;20597;-87
2020/12/08 02:01:15;;;;;;;25.00;22.50;;;3.60;99.90;;;;;;5081922;28;20762;-86
2020/12/08 02:03:42;;;;;;;23.40;21.20;;;3.50;99.90;;;;;;5081775;28;20618;-86
2020/12/08 02:06:09;;;;;;;24.70;22.10;;;3.50;99.90;;;;;;5079307;28;20630;-86
2020/12/08 02:08:37;;;;;;;23.80;21.50;;;3.50;99.90;;;;;;5082821;28;21215;-86
2020/12/08 02:11:04;;;;;;;22.03;19.83;;;3.40;99.90;;;;;;5082199;28;20653;-86
2020/12/08 02:13:30;;;;;;;22.30;20.10;;;3.40;99.90;;;;;;5082561;28;20632;-86
2020/12/08 02:15:58;;;;;;;25.47;22.97;;;3.30;99.90;;;;;;5081154;28;21167;-86
2020/12/08 02:18:24;;;;;;;22.53;20.30;;;3.20;99.90;;;;;;5080940;28;20605;-86
2020/12/08 02:20:56;;;;;;;21.53;19.40;;;3.10;99.90;;;;;;5078410;28;20676;-86
2020/12/08 02:23:22;;;;;;;22.03;19.90;;;3.10;99.90;;;;;;5087078;28;21191;-86
2020/12/08 02:25:56;;;;;;;20.77;18.57;;;3.10;99.90;;;;;;5090938;28;20916;-87
2020/12/08 02:28:23;;;;;;;21.20;19.00;;;3.00;99.90;;;;;;5085495;28;20607;-86
2020/12/08 02:30:49;;;;;;;22.00;19.73;;;3.00;99.90;;;;;;5085700;28;20648;-85
2020/12/08 02:33:15;;;;;;;21.20;19.00;;;2.80;99.90;;;;;;5083671;28;20632;-86
2020/12/08 02:35:42;;;;;;;22.17;19.97;;;2.50;99.90;;;;;;5084439;28;20597;-86
2020/12/08 02:38:09;;;;;;;23.10;20.90;;;2.50;99.90;;;;;;5079899;28;20624;-86
2020/12/08 02:40:35;;;;;;;23.03;20.83;;;2.50;99.90;;;;;;5086106;28;20682;-86
2020/12/08 02:43:01;;;;;;;21.27;18.90;;;2.40;99.90;;;;;;5099291;28;21178;-86
2020/12/08 02:45:28;;;;;;;24.80;22.43;;;2.40;99.90;;;;;;5086481;28;21238;-85
2020/12/08 02:47:54;;;;;;;22.40;20.13;;;2.50;99.90;;;;;;5089440;28;20612;-86
2020/12/08 02:50:20;;;;;;;21.27;19.17;;;2.40;99.90;;;;;;5088537;28;20648;-85
2020/12/08 02:52:46;;;;;;;23.83;21.50;;;2.40;99.90;;;;;;5081262;28;20626;-86
2020/12/08 02:55:15;;;;;;;21.33;19.33;;;2.50;99.90;;;;;;5095229;28;20623;-85
2020/12/08 02:57:41;;;;;;;23.27;20.87;;;2.40;99.90;;;;;;5080697;28;20970;-85
2020/12/08 03:00:09;;;;;;;23.17;20.87;;;2.50;99.90;;;;;;5080948;28;21226;-86
2020/12/08 03:02:35;;;;;;;24.63;22.30;;;2.40;99.90;;;;;;5085539;28;20990;-85
2020/12/08 03:05:01;;;;;;;23.70;21.30;;;2.50;99.90;;;;;;5091574;28;20637;-85
2020/12/08 03:07:28;;;;;;;24.70;22.30;;;2.50;99.90;;;;;;5088581;28;20620;-88
2020/12/08 03:09:54;;;;;;;22.67;20.47;;;2.60;99.90;;;;;;5085151;28;20648;-86
2020/12/08 03:12:22;;;;;;;23.03;20.83;;;2.60;99.90;;;;;;5080902;28;20627;-86
2020/12/08 03:14:48;;;;;;;22.53;20.43;;;2.60;99.90;;;;;;5082652;28;20636;-86
2020/12/08 03:17:14;;;;;;;21.70;19.60;;;2.60;99.90;;;;;;5082486;28;20628;-86
2020/12/08 03:19:40;;;;;;;23.30;21.00;;;2.50;99.90;;;;;;5084189;28;20647;-85
2020/12/08 03:22:07;;;;;;;24.03;21.53;;;2.50;99.90;;;;;;5082235;28;20646;-87
2020/12/08 03:24:33;;;;;;;23.83;19.77;;;2.60;99.90;;;;;;5080712;28;21209;-86
2020/12/08 03:26:59;;;;;;;23.17;20.93;;;2.60;99.90;;;;;;5090888;28;20633;-85
2020/12/08 03:29:27;;;;;;;23.23;21.00;;;2.60;99.90;;;;;;5084223;28;20613;-85
2020/12/08 03:31:53;;;;;;;24.63;22.17;;;2.50;99.90;;;;;;5083582;28;20617;-88
2020/12/08 03:34:19;;;;;;;23.90;21.43;;;2.40;99.90;;;;;;5085025;28;20625;-88
2020/12/08 03:36:47;;;;;;;23.07;20.80;;;2.40;99.90;;;;;;5081903;28;20633;-87
2020/12/08 03:39:16;;;;;;;23.23;21.03;;;2.50;99.90;;;;;;5080296;28;20641;-85
2020/12/08 03:41:42;;;;;;;24.93;22.50;;;2.40;99.90;;;;;;5080825;28;20753;-87
2020/12/08 03:44:09;;;;;;;25.73;23.20;;;2.30;99.90;;;;;;5085589;28;20632;-88
2020/12/08 03:46:37;;;;;;;23.30;20.90;;;2.30;99.90;;;;;;5086506;28;20625;-88
2020/12/08 03:49:04;;;;;;;24.83;22.33;;;2.40;99.90;;;;;;5084861;28;20632;-88
2020/12/08 03:51:30;;;;;;;23.37;21.13;;;2.20;99.90;;;;;;5084256;28;20672;-88
2020/12/08 03:53:56;;;;;;;23.37;21.00;;;2.20;99.90;;;;;;5094294;28;20628;-86
2020/12/08 03:56:23;;;;;;;24.93;22.43;;;2.10;99.90;;;;;;5090563;28;20636;-88
2020/12/08 03:58:49;;;;;;;24.23;21.83;;;2.00;99.90;;;;;;5086069;28;21128;-88
2020/12/08 04:01:16;;;;;;;24.63;21.73;;;2.00;99.90;;;;;;5088341;28;20680;-87
2020/12/08 04:03:44;;;;;;;22.33;20.20;;;2.00;99.90;;;;;;5086862;28;20620;-87
2020/12/08 04:06:12;;;;;;;22.07;19.87;;;2.00;99.90;;;;;;5085135;28;20616;-87
2020/12/08 04:08:38;;;;;;;25.43;22.87;;;2.00;99.90;;;;;;5090051;28;20660;-88
2020/12/08 04:11:05;;;;;;;26.57;23.90;;;2.00;99.90;;;;;;5073846;28;21216;-88
2020/12/08 04:13:31;;;;;;;24.73;22.33;;;2.10;99.90;;;;;;5074771;28;20617;-87
2020/12/08 04:15:58;;;;;;;23.43;21.13;;;2.00;99.90;;;;;;5086332;28;21138;-87
2020/12/08 04:18:24;;;;;;;24.03;21.60;;;1.90;99.90;;;;;;5083826;28;21108;-87
2020/12/08 04:20:51;;;;;;;24.60;22.10;;;1.90;99.90;;;;;;5087649;28;20692;-86
2020/12/08 04:23:18;;;;;;;23.90;21.60;;;1.80;99.90;;;;;;5085290;28;20633;-88
2020/12/08 04:25:45;;;;;;;26.37;23.67;;;1.70;99.90;;;;;;5083078;28;20644;-85
2020/12/08 04:28:11;;;;;;;25.40;22.80;;;1.80;99.90;;;;;;5087499;28;20647;-86
2020/12/08 04:30:38;;;;;;;26.57;23.80;;;1.80;99.90;;;;;;5085797;28;20640;-87
2020/12/08 04:33:05;;;;;;;25.80;23.30;;;1.70;99.90;;;;;;5086471;28;21097;-89
2020/12/08 04:35:32;;;;;;;23.90;21.60;;;1.60;99.90;;;;;;5084581;28;20700;-88
2020/12/08 04:37:59;;;;;;;25.07;22.47;;;1.50;99.90;;;;;;5085113;28;20625;-88
2020/12/08 04:40:26;;;;;;;25.63;22.93;;;1.40;99.90;;;;;;5080750;28;20677;-87
2020/12/08 04:42:54;;;;;;;26.87;24.07;;;1.50;99.90;;;;;;5081883;28;20617;-88
2020/12/08 04:45:21;;;;;;;78.30;53.20;;;1.50;99.90;;;;;;5088297;28;20667;-87
2020/12/08 04:47:49;;;;;;;29.00;25.57;;;1.60;99.90;;;;;;5082191;28;21160;-88
2020/12/08 04:50:18;;;;;;;28.60;24.87;;;1.60;99.90;;;;;;5086009;28;21238;-88
2020/12/08 04:52:48;;;;;;;30.30;27.03;;;1.50;99.90;;;;;;5078498;28;21151;-87
2020/12/08 04:55:18;;;;;;;41.60;32.17;;;1.60;99.90;;;;;;5081606;28;20620;-87
2020/12/08 04:57:45;;;;;;;31.17;27.73;;;1.50;99.90;;;;;;5086930;28;20615;-88
2020/12/08 05:00:12;;;;;;;28.20;25.20;;;1.50;99.90;;;;;;5085939;28;20681;-86
2020/12/08 05:02:46;;;;;;;41.37;31.80;;;1.60;99.90;;;;;;5087689;28;21528;-86
2020/12/08 05:05:12;;;;;;;32.60;28.00;;;1.60;99.90;;;;;;5084531;28;20666;-87
2020/12/08 05:07:39;;;;;;;30.03;26.00;;;1.60;99.90;;;;;;5078949;28;20644;-88
2020/12/08 05:10:05;;;;;;;30.07;26.80;;;1.70;99.90;;;;;;5085252;28;20640;-87
2020/12/08 05:12:32;;;;;;;32.20;28.20;;;1.70;99.90;;;;;;5079886;28;20625;-87
2020/12/08 05:14:59;;;;;;;46.20;35.17;;;1.70;99.90;;;;;;5085259;28;20645;-88
2020/12/08 05:17:26;;;;;;;41.90;33.60;;;1.80;99.90;;;;;;5084483;28;20620;-88
2020/12/08 05:20:04;;;;;;;46.90;35.10;;;1.80;99.90;;;;;;5084051;28;21160;-89
2020/12/08 05:22:33;;;;;;;60.17;46.77;;;1.90;99.90;;;;;;5081528;28;21075;-86
2020/12/08 05:25:09;;;;;;;41.87;35.93;;;2.00;99.90;;;;;;5087580;28;20648;-87
2020/12/08 05:27:38;;;;;;;33.63;29.37;;;2.00;99.90;;;;;;5085575;28;20851;-88
2020/12/08 05:30:06;;;;;;;34.13;29.70;;;2.00;99.90;;;;;;5077779;28;21132;-87
2020/12/08 05:32:36;;;;;;;38.23;34.10;;;2.00;99.90;;;;;;5087164;28;21159;-86
2020/12/08 05:35:06;;;;;;;74.50;66.27;;;2.00;99.90;;;;;;5080725;28;20671;-87
2020/12/08 05:37:36;;;;;;;45.27;40.43;;;2.10;99.90;;;;;;5083536;28;21195;-88
2020/12/08 05:40:06;;;;;;;35.13;31.43;;;2.30;99.90;;;;;;5085888;28;20633;-87
2020/12/08 05:42:35;;;;;;;34.60;31.00;;;2.30;99.90;;;;;;5118763;27;20952;-87
2020/12/08 05:45:03;;;;;;;36.30;32.80;;;2.40;99.90;;;;;;5083877;28;20652;-87
2020/12/08 05:47:40;;;;;;;34.87;31.17;;;2.40;99.90;;;;;;5088770;28;20632;-87
2020/12/08 05:50:07;;;;;;;33.63;30.30;;;2.40;99.90;;;;;;5079271;28;20732;-88
2020/12/08 05:52:35;;;;;;;32.47;28.97;;;2.50;99.90;;;;;;5088384;28;20630;-88
2020/12/08 05:55:12;;;;;;;31.67;28.47;;;2.60;99.90;;;;;;5085340;28;20691;-88
2020/12/08 05:57:39;;;;;;;32.17;28.87;;;2.50;99.90;;;;;;5095870;28;20623;-86
2020/12/08 06:00:19;;;;;;;30.40;27.00;;;2.40;99.90;;;;;;5084419;28;20951;-87
2020/12/08 06:02:46;;;;;;;29.20;26.17;;;2.40;99.90;;;;;;5077409;28;20625;-87
2020/12/08 06:05:25;;;;;;;27.63;24.77;;;2.40;99.90;;;;;;5082541;28;20991;-87
2020/12/08 06:07:51;;;;;;;27.53;24.77;;;2.30;99.90;;;;;;5078713;28;20727;-87
2020/12/08 06:10:21;;;;;;;28.10;25.43;;;2.40;99.90;;;;;;5087323;28;20625;-87
2020/12/08 06:12:57;;;;;;;30.10;27.03;;;2.30;99.90;;;;;;5084758;28;20615;-87
2020/12/08 06:15:26;;;;;;;28.57;25.57;;;2.40;99.90;;;;;;5078669;28;20734;-87
2020/12/08 06:17:53;;;;;;;28.20;24.37;;;2.30;99.90;;;;;;5083380;28;21404;-88
2020/12/08 06:20:21;;;;;;;28.00;25.27;;;2.40;99.90;;;;;;5086196;28;20664;-88
2020/12/08 06:22:54;;;;;;;27.97;25.27;;;2.50;99.90;;;;;;5082939;28;20671;-88
2020/12/08 06:25:21;;;;;;;28.43;25.40;;;2.50;99.90;;;;;;5090592;28;20771;-88
2020/12/08 06:27:47;;;;;;;27.90;25.00;;;2.50;99.90;;;;;;5082955;28;20620;-87
2020/12/08 06:30:19;;;;;;;27.63;24.83;;;2.50;99.90;;;;;;5081552;28;20617;-81
2020/12/08 06:32:46;;;;;;;28.73;25.73;;;2.30;99.90;;;;;;5084537;28;21547;-81
2020/12/08 06:35:14;;;;;;;29.40;26.40;;;2.10;99.90;;;;;;5083238;28;21015;-80
2020/12/08 06:37:45;;;;;;;28.87;25.77;;;2.00;99.90;;;;;;5082336;28;21143;-80
2020/12/08 06:40:13;;;;;;;28.93;25.83;;;2.00;99.90;;;;;;5080901;28;20671;-80
2020/12/08 06:42:40;;;;;;;28.90;25.90;;;2.00;99.90;;;;;;5083805;28;20649;-81
2020/12/08 06:45:15;;;;;;;30.23;27.10;;;1.80;99.90;;;;;;5087259;28;20987;-81
2020/12/08 06:47:43;;;;;;;30.10;26.97;;;1.70;99.90;;;;;;5077432;28;20601;-81
2020/12/08 06:50:22;;;;;;;31.70;28.53;;;1.70;99.90;;;;;;5082031;28;20621;-80
2020/12/08 06:52:53;;;;;;;35.50;30.77;;;1.70;99.90;;;;;;5080142;28;21019;-80
2020/12/08 06:55:20;;;;;;;36.33;32.27;;;1.50;99.90;;;;;;5080369;28;21174;-80
2020/12/08 06:57:46;;;;;;;38.10;33.47;;;1.40;99.90;;;;;;5074359;28;20652;-80
2020/12/08 07:00:14;;;;;;;33.47;29.67;;;1.30;99.90;;;;;;5083888;28;21162;-80
2020/12/08 07:02:48;;;;;;;35.40;31.47;;;1.30;99.90;;;;;;5076710;28;21245;-81
2020/12/08 07:05:15;;;;;;;35.70;30.33;;;1.40;99.90;;;;;;5080641;28;20616;-80
2020/12/08 07:07:44;;;;;;;34.30;28.77;;;1.30;99.90;;;;;;5078370;28;20625;-80
2020/12/08 07:10:10;;;;;;;35.43;30.23;;;1.20;99.90;;;;;;5082876;28;20991;-81
2020/12/08 07:12:44;;;;;;;44.10;38.67;;;1.10;99.90;;;;;;5079987;28;20642;-81
2020/12/08 07:15:18;;;;;;;45.40;37.17;;;1.00;99.90;;;;;;5080995;28;20625;-81
2020/12/08 07:17:45;;;;;;;36.30;31.73;;;1.00;99.90;;;;;;5081894;28;20618;-82
2020/12/08 07:20:11;;;;;;;34.57;29.80;;;1.10;99.90;;;;;;5081543;28;20633;-81
2020/12/08 07:22:43;;;;;;;34.90;28.37;;;1.00;99.90;;;;;;5085877;28;20700;-82
2020/12/08 07:25:10;;;;;;;33.47;28.80;;;1.00;99.90;;;;;;5087087;28;20861;-81
2020/12/08 07:27:43;;;;;;;34.47;27.37;;;1.00;99.90;;;;;;5081040;28;20618;-82
2020/12/08 07:30:11;;;;;;;38.50;33.50;;;1.00;99.90;;;;;;5081545;28;20723;-82
2020/12/08 07:32:38;;;;;;;43.10;35.07;;;1.10;99.90;;;;;;5083277;28;20652;-82
2020/12/08 07:35:06;;;;;;;38.77;32.03;;;1.20;99.90;;;;;;5082903;28;20629;-82
2020/12/08 07:37:37;;;;;;;41.40;31.93;;;1.30;99.90;;;;;;5085015;28;20617;-81
2020/12/08 07:40:08;;;;;;;58.57;32.57;;;1.40;99.90;;;;;;5081701;28;20661;-83
2020/12/08 07:42:36;;;;;;;38.33;30.73;;;1.40;99.90;;;;;;5081740;28;20621;-82
2020/12/08 07:45:07;;;;;;;39.37;29.93;;;1.40;99.90;;;;;;5087697;28;20624;-82
2020/12/08 07:47:33;;;;;;;40.70;32.03;;;1.40;99.90;;;;;;5082929;28;21015;-81
2020/12/08 07:49:59;;;;;;;39.10;30.70;;;1.40;99.90;;;;;;5084693;28;20653;-81
2020/12/08 07:52:28;;;;;;;37.80;29.73;;;1.40;99.90;;;;;;5081684;28;20625;-81
2020/12/08 07:54:54;;;;;;;37.93;29.90;;;1.50;99.90;;;;;;5081425;28;20621;-82
2020/12/08 07:57:20;;;;;;;35.43;28.63;;;1.60;99.90;;;;;;5084517;28;20619;-82
2020/12/08 07:59:47;;;;;;;36.50;30.73;;;1.70;99.90;;;;;;5083801;28;20647;-82
2020/12/08 08:02:14;;;;;;;37.83;31.83;;;1.70;99.90;;;;;;5082425;28;20674;-81
2020/12/08 08:04:40;;;;;;;38.23;31.70;;;1.70;99.90;;;;;;5082272;28;21080;-82
2020/12/08 08:07:06;;;;;;;35.40;28.87;;;1.80;99.90;;;;;;5083158;28;21185;-81
2020/12/08 08:09:32;;;;;;;38.30;30.03;;;1.70;99.90;;;;;;5086763;28;21797;-81
2020/12/08 08:12:00;;;;;;;33.50;28.13;;;1.80;99.90;;;;;;5081351;28;20620;-82
2020/12/08 08:14:27;;;;;;;33.23;28.47;;;1.80;99.90;;;;;;5081429;28;20634;-81
2020/12/08 08:16:54;;;;;;;33.27;29.17;;;1.80;99.90;;;;;;5086322;28;20625;-81
2020/12/08 08:19:20;;;;;;;36.87;29.10;;;2.00;99.90;;;;;;5080574;28;20630;-82
2020/12/08 08:21:47;;;;;;;32.00;27.63;;;1.80;99.90;;;;;;5082255;28;20660;-81
2020/12/08 08:24:13;;;;;;;30.03;26.70;;;1.80;99.90;;;;;;5084599;28;21234;-81
2020/12/08 08:26:40;;;;;;;32.33;27.80;;;1.80;99.90;;;;;;5084942;28;21178;-81
2020/12/08 08:29:07;;;;;;;33.63;27.93;;;1.70;99.90;;;;;;5082005;28;20697;-82
2020/12/08 08:31:33;;;;;;;31.30;27.00;;;1.80;99.90;;;;;;5084782;28;20609;-81
2020/12/08 08:34:01;;;;;;;34.23;29.57;;;2.00;99.90;;;;;;5086148;28;20632;-81
2020/12/08 08:36:28;;;;;;;32.97;28.50;;;2.20;99.90;;;;;;5083468;28;20673;-81
2020/12/08 08:38:54;;;;;;;31.03;27.77;;;2.50;99.90;;;;;;5083508;28;20656;-81
2020/12/08 08:41:21;;;;;;;31.50;27.90;;;2.70;99.90;;;;;;5086763;28;20656;-83
2020/12/08 08:43:47;;;;;;;30.83;27.53;;;2.70;99.90;;;;;;5082358;28;20624;-80
2020/12/08 08:46:13;;;;;;;31.87;28.57;;;3.10;99.90;;;;;;5088744;28;20624;-82
2020/12/08 08:48:39;;;;;;;29.77;26.67;;;3.20;99.90;;;;;;5086332;28;20649;-81
2020/12/08 08:51:07;;;;;;;30.70;27.50;;;3.40;99.90;;;;;;5081250;28;20720;-81
2020/12/08 08:53:34;;;;;;;28.43;25.53;;;3.60;99.90;;;;;;5085279;28;20620;-81
2020/12/08 08:56:00;;;;;;;30.07;26.93;;;3.80;99.90;;;;;;5086813;28;20626;-82
2020/12/08 08:58:26;;;;;;;28.50;25.70;;;3.90;99.90;;;;;;5085281;28;20647;-81
2020/12/08 09:00:52;;;;;;;29.07;26.07;;;3.90;99.90;;;;;;5083291;28;20669;-81
2020/12/08 09:03:19;;;;;;;27.77;24.77;;;4.00;99.90;;;;;;5080767;28;20656;-81
2020/12/08 09:05:48;;;;;;;26.00;23.40;;;4.20;99.90;;;;;;5082279;28;20668;-81
2020/12/08 09:08:15;;;;;;;28.07;25.37;;;4.30;99.90;;;;;;5089835;28;20662;-82
2020/12/08 09:10:42;;;;;;;25.40;22.90;;;4.40;99.90;;;;;;5084093;28;20616;-82
2020/12/08 09:13:08;;;;;;;28.00;25.23;;;4.70;99.90;;;;;;5084594;28;20628;-82
2020/12/08 09:15:34;;;;;;;28.43;25.53;;;4.80;99.90;;;;;;5082417;28;20617;-82
2020/12/08 09:18:00;;;;;;;27.03;24.37;;;4.90;99.90;;;;;;5084205;28;20648;-82
2020/12/08 09:20:27;;;;;;;25.30;22.80;;;5.00;99.90;;;;;;5083089;28;20639;-82
2020/12/08 09:22:53;;;;;;;26.27;23.63;;;5.10;99.90;;;;;;5084013;28;20625;-82
2020/12/08 09:25:22;;;;;;;25.37;22.57;;;5.10;99.90;;;;;;5082132;28;20670;-82
2020/12/08 09:27:49;;;;;;;24.77;22.27;;;5.20;99.90;;;;;;5081980;28;20663;-82
2020/12/08 09:30:15;;;;;;;22.70;20.43;;;5.10;99.90;;;;;;5085494;28;20624;-82
2020/12/08 09:32:42;;;;;;;24.83;22.33;;;5.10;99.90;;;;;;5082586;28;20631;-82
2020/12/08 09:35:11;;;;;;;28.90;26.20;;;5.30;99.90;;;;;;5083365;28;21248;-82
2020/12/08 09:37:37;;;;;;;25.30;22.90;;;5.40;99.90;;;;;;5077576;28;20628;-82
2020/12/08 09:40:04;;;;;;;26.10;23.30;;;5.50;99.90;;;;;;5080853;28;20637;-81
2020/12/08 09:42:31;;;;;;;25.00;22.37;;;5.50;99.90;;;;;;5083062;28;20664;-81
2020/12/08 09:44:58;;;;;;;25.30;22.83;;;5.60;99.90;;;;;;5082365;28;20659;-81
2020/12/08 09:47:24;;;;;;;26.10;23.40;;;5.80;99.90;;;;;;5083089;28;20622;-81
2020/12/08 09:49:50;;;;;;;25.10;22.60;;;5.90;99.90;;;;;;5083910;28;20616;-80
2020/12/08 09:52:16;;;;;;;24.37;21.60;;;5.90;99.90;;;;;;5085677;28;20621;-81
2020/12/08 09:54:43;;;;;;;24.53;21.73;;;6.10;99.90;;;;;;5085717;28;20650;-80
2020/12/08 09:57:09;;;;;;;25.07;22.37;;;6.30;99.90;;;;;;5091019;28;20630;-81
2020/12/08 09:59:36;;;;;;;24.47;22.07;;;6.00;99.90;;;;;;5087434;28;20620;-82
2020/12/08 10:02:03;;;;;;;24.50;22.10;;;6.10;99.90;;;;;;5085227;28;20670;-81
2020/12/08 10:04:30;;;;;;;24.60;22.00;;;6.40;99.90;;;;;;5087986;28;20652;-81
2020/12/08 10:06:56;;;;;;;23.67;21.53;;;6.50;99.90;;;;;;5089125;28;21220;-81
2020/12/08 10:09:23;;;;;;;24.17;21.97;;;6.50;99.90;;;;;;5087992;28;20629;-83
2020/12/08 10:11:49;;;;;;;26.00;22.97;;;6.70;99.90;;;;;;5084717;28;20628;-83
2020/12/08 10:14:15;;;;;;;24.67;22.07;;;6.60;99.90;;;;;;5089035;28;20664;-81
2020/12/08 10:16:42;;;;;;;23.83;21.33;;;6.60;99.90;;;;;;5088321;28;20626;-82
2020/12/08 10:19:09;;;;;;;23.70;21.40;;;6.50;99.90;;;;;;5085698;28;20973;-82
2020/12/08 10:21:35;;;;;;;22.60;20.30;;;6.70;99.90;;;;;;5081486;28;20754;-82
2020/12/08 10:24:03;;;;;;;24.23;21.83;;;6.90;99.90;;;;;;5082448;28;20705;-84
2020/12/08 10:26:29;;;;;;;22.43;20.23;;;7.00;99.90;;;;;;5090713;28;21244;-82
2020/12/08 10:28:55;;;;;;;24.23;21.93;;;7.20;99.90;;;;;;5088521;28;20635;-80
2020/12/08 10:31:22;;;;;;;24.37;21.97;;;7.40;99.90;;;;;;5095906;28;20616;-82
2020/12/08 10:33:49;;;;;;;23.40;20.87;;;7.40;99.90;;;;;;5085548;28;20660;-82
2020/12/08 10:36:15;;;;;;;22.27;20.17;;;7.40;99.90;;;;;;5079704;28;20637;-82
2020/12/08 10:38:42;;;;;;;24.20;21.80;;;7.20;99.90;;;;;;5083602;28;21198;-82
2020/12/08 10:41:09;;;;;;;22.20;19.97;;;7.60;99.90;;;;;;5081601;28;20660;-83
2020/12/08 10:43:35;;;;;;;22.93;20.53;;;7.50;99.90;;;;;;5085904;28;20648;-82
2020/12/08 10:46:01;;;;;;;23.33;20.43;;;7.70;99.90;;;;;;5080296;28;20636;-82
2020/12/08 10:48:28;;;;;;;20.97;18.87;;;7.80;99.90;;;;;;5081836;28;20655;-83
2020/12/08 10:50:56;;;;;;;21.87;19.53;;;7.70;99.90;;;;;;5076672;28;20623;-82
2020/12/08 10:53:22;;;;;;;22.30;20.00;;;8.10;99.80;;;;;;5083716;28;20644;-82
2020/12/08 10:55:49;;;;;;;18.07;16.20;;;8.30;99.70;;;;;;5085048;28;20637;-83
2020/12/08 10:58:15;;;;;;;18.73;16.83;;;8.50;99.40;;;;;;5086886;28;20626;-83
2020/12/08 11:00:41;;;;;;;19.00;17.10;;;8.30;99.30;;;;;;5083845;28;20623;-82
2020/12/08 11:03:07;;;;;;;21.70;19.50;;;7.70;99.90;;;;;;5083775;28;20651;-82
2020/12/08 11:05:35;;;;;;;23.20;20.80;;;7.80;99.70;;;;;;5088100;28;20994;-82
2020/12/08 11:08:02;;;;;;;22.30;20.10;;;7.60;99.90;;;;;;5089464;28;20709;-83
2020/12/08 11:10:28;;;;;;;21.60;19.40;;;7.70;99.90;;;;;;5088947;28;20616;-82
2020/12/08 11:12:55;;;;;;;22.03;19.73;;;7.80;99.60;;;;;;5088969;28;20641;-82
2020/12/08 11:15:21;;;;;;;21.73;19.43;;;7.60;99.90;;;;;;5092490;28;20644;-82
2020/12/08 11:17:47;;;;;;;21.90;19.57;;;7.30;99.90;;;;;;5080221;28;20653;-82
2020/12/08 11:20:14;;;;;;;21.80;19.60;;;7.30;99.90;;;;;;5084091;28;20666;-82
2020/12/08 11:22:40;;;;;;;20.80;18.60;;;7.20;99.90;;;;;;5082513;28;21523;-82
2020/12/08 11:25:07;;;;;;;19.30;17.30;;;7.20;99.90;;;;;;5088677;28;20637;-83
2020/12/08 11:27:34;;;;;;;20.80;18.57;;;7.20;99.90;;;;;;5080852;28;20606;-82
2020/12/08 11:30:00;;;;;;;21.17;18.90;;;7.10;99.90;;;;;;5087098;28;20680;-83
2020/12/08 11:32:26;;;;;;;21.20;19.00;;;7.10;99.90;;;;;;5091974;28;20621;-82
2020/12/08 11:34:53;;;;;;;19.63;17.57;;;7.20;99.90;;;;;;5084204;27;20627;-83
2020/12/08 11:37:19;;;;;;;21.73;19.20;;;7.20;99.90;;;;;;5092435;28;20626;-82
2020/12/08 11:39:46;;;;;;;19.27;17.30;;;7.20;99.90;;;;;;5081977;28;20650;-82
2020/12/08 11:42:14;;;;;;;20.67;18.70;;;7.20;99.90;;;;;;5096031;28;20670;-83
2020/12/08 11:44:42;;;;;;;21.10;19.00;;;7.20;99.90;;;;;;5082843;28;20722;-83
2020/12/08 11:47:08;;;;;;;20.03;17.83;;;7.50;99.90;;;;;;5092006;28;20621;-83
2020/12/08 11:49:36;;;;;;;19.97;18.07;;;7.90;99.60;;;;;;5086580;28;20651;-83
2020/12/08 11:52:05;;;;;;;17.97;16.20;;;7.90;99.00;;;;;;5079203;28;20684;-83
2020/12/08 11:54:31;;;;;;;18.57;16.37;;;8.00;98.80;;;;;;5084384;28;21402;-83
2020/12/08 11:56:57;;;;;;;19.93;16.93;;;8.40;99.00;;;;;;5082098;28;20719;-88
2020/12/08 11:59:24;;;;;;;19.00;17.10;;;8.90;97.70;;;;;;5094139;28;20637;-87
2020/12/08 12:01:51;;;;;;;17.60;15.90;;;9.10;97.10;;;;;;5093163;28;20659;-88
2020/12/08 12:04:17;;;;;;;18.57;16.67;;;9.20;96.50;;;;;;5089385;28;20699;-89
2020/12/08 12:06:44;;;;;;;20.37;15.87;;;9.20;96.30;;;;;;5095783;28;20617;-90
2020/12/08 12:09:10;;;;;;;19.00;17.00;;;9.40;96.50;;;;;;5096225;28;20757;-91
2020/12/08 12:11:37;;;;;;;17.97;16.10;;;9.30;96.50;;;;;;5094137;28;20621;-87
2020/12/08 12:14:03;;;;;;;18.47;16.63;;;9.20;97.00;;;;;;5092726;28;20636;-86
2020/12/08 12:16:31;;;;;;;17.20;15.47;;;9.30;97.00;;;;;;5087976;28;20624;-87
2020/12/08 12:18:57;;;;;;;17.07;15.37;;;9.40;96.90;;;;;;5085156;28;20743;-87
2020/12/08 12:21:23;;;;;;;15.23;12.53;;;9.30;97.40;;;;;;5087921;28;21020;-87
2020/12/08 12:23:50;;;;;;;17.30;15.70;;;9.70;97.40;;;;;;5092920;28;21292;-87
2020/12/08 12:26:16;;;;;;;16.23;14.63;;;9.50;96.70;;;;;;5088993;28;20621;-87
2020/12/08 12:28:42;;;;;;;15.37;13.90;;;9.60;96.90;;;;;;5083725;28;20647;-89
2020/12/08 12:31:09;;;;;;;14.80;13.20;;;9.80;96.90;;;;;;5086463;28;20709;-88
2020/12/08 12:33:37;;;;;;;13.87;12.37;;;9.50;97.00;;;;;;5096886;28;20637;-88
2020/12/08 12:36:04;;;;;;;15.70;14.10;;;9.40;96.60;;;;;;5088085;28;20760;-88